HomeShort term forecast

Short term forecast

Graphical weather forecast for for Montreal:

Short term forecast

The above graphic is automatically refreshed every 3 hours.

Hourly Experimental Weather Forecast for the next 72 hours


 Date & Hour   Temp   Feel   Baro   Hum   Speed & Bearing   Wind Gust   Precip.%   Precip.   Visibility   Cloud cover   Conditions 
 13/07/2024 - 00:00  22.6°C  23.0°C  1019.4 hPa  87%  6.4 km/h   12.8 km/h  0%  --  22.0 km  16%  Mostly clear 
 13/07/2024 - 01:00  21.9°C  22.2°C  1019.3 hPa  89%  6.4 km/h   12.3 km/h  0%  --  20.8 km  15%  Mostly clear 
 13/07/2024 - 02:00  21.3°C  21.6°C  1019.1 hPa  90%  6.4 km/h   11.5 km/h  0%  --  19.6 km  15%  Mostly clear 
 13/07/2024 - 03:00  20.9°C  21.2°C  1019.1 hPa  92%  6.7 km/h   13.8 km/h  0%  --  18.1 km  26%  Mostly clear 
 13/07/2024 - 04:00  20.5°C  20.9°C  1019.2 hPa  93%  7.0 km/h   14.1 km/h  0%  --  18.8 km  36%  Mostly clear 
 13/07/2024 - 05:00  20.3°C  20.4°C  1019.3 hPa  93%  7.7 km/h   17.0 km/h  0%  --  18.9 km  36%  Mostly clear 
 13/07/2024 - 06:00  20.5°C  20.8°C  1019.4 hPa  92%  8.9 km/h   19.5 km/h  2%  --  16.1 km  33%  Mostly clear 
 13/07/2024 - 07:00  21.3°C  22.7°C  1019.6 hPa  89%  9.0 km/h   20.5 km/h  0%  --  18.8 km  25%  Mostly clear 
 13/07/2024 - 08:00  22.2°C  23.6°C  1019.7 hPa  85%  9.6 km/h   19.1 km/h  0%  --  18.5 km  36%  Mostly clear 
 13/07/2024 - 09:00  23.5°C  24.9°C  1019.7 hPa  81%  10.7 km/h   19.2 km/h  0%  --  23.2 km  31%  Mostly clear 
 13/07/2024 - 10:00  24.6°C  25.6°C  1019.6 hPa  76%  11.6 km/h   21.1 km/h  0%  --  24.9 km  37%  Mostly clear 
 13/07/2024 - 11:00  25.7°C  26.5°C  1019.3 hPa  72%  12.8 km/h   23.8 km/h  50%  --  26.0 km  39%  Partly cloudy 
 13/07/2024 - 12:00  26.8°C  27.7°C  1018.9 hPa  68%  13.8 km/h   25.0 km/h  2%  --  25.2 km  25%  Mostly clear 
 13/07/2024 - 13:00  27.9°C  28.6°C  1018.5 hPa  64%  14.8 km/h   25.9 km/h  51%  --  24.9 km  25%  Mostly clear 
 13/07/2024 - 14:00  27.9°C  28.2°C  1018.2 hPa  64%  15.0 km/h   27.7 km/h  53%  0.70 mm/h  23.9 km  41%  Thunderstorm 
 13/07/2024 - 15:00  28.1°C  29.0°C  1017.9 hPa  64%  13.6 km/h   27.1 km/h  6%  1.78 mm/h  25.3 km  28%  Rain 
 13/07/2024 - 16:00  28.6°C  29.8°C  1017.5 hPa  61%  13.6 km/h   26.0 km/h  6%  --  28.5 km  17%  Mostly clear 
 13/07/2024 - 17:00  29.1°C  30.2°C  1017.1 hPa  60%  13.7 km/h   26.0 km/h  5%  --  28.5 km  17%  Mostly clear 
 13/07/2024 - 18:00  28.7°C  30.0°C  1016.9 hPa  60%  12.9 km/h   24.7 km/h  0%  --  28.8 km  14%  Mostly clear 
 13/07/2024 - 19:00  28.0°C  29.3°C  1016.9 hPa  62%  10.1 km/h   21.7 km/h  0%  --  28.2 km  13%  Mostly clear 
 13/07/2024 - 20:00  26.8°C  27.5°C  1017.1 hPa  66%  7.5 km/h   20.0 km/h  0%  --  27.7 km  11%  Clear sky 
 13/07/2024 - 21:00  25.6°C  25.6°C  1017.1 hPa  71%  7.5 km/h   19.3 km/h  0%  --  27.6 km  4%  Clear sky 
 13/07/2024 - 22:00  24.4°C  24.3°C  1017.3 hPa  75%  8.3 km/h   19.9 km/h  0%  --  27.4 km  14%  Mostly clear 
 13/07/2024 - 23:00  23.5°C  23.2°C  1017.2 hPa  78%  8.8 km/h   20.4 km/h  0%  --  26.3 km  8%  Clear sky 
 14/07/2024 - 00:00  22.7°C  22.3°C  1017.1 hPa  81%  9.0 km/h   20.7 km/h  0%  --  26.3 km  1%  Clear sky 
 14/07/2024 - 01:00  21.9°C  21.3°C  1016.8 hPa  84%  9.3 km/h   20.8 km/h  0%  --  26.0 km  2%  Clear sky 
 14/07/2024 - 02:00  21.3°C  20.6°C  1016.4 hPa  86%  10.0 km/h   20.9 km/h  0%  --  25.8 km  1%  Clear sky 
 14/07/2024 - 03:00  20.8°C  20.0°C  1016.2 hPa  88%  10.1 km/h   20.6 km/h  0%  --  24.0 km  2%  Clear sky 
 14/07/2024 - 04:00  20.4°C  19.6°C  1016.1 hPa  90%  9.8 km/h   19.1 km/h  0%  --  22.0 km  5%  Clear sky 
 14/07/2024 - 05:00  20.1°C  19.3°C  1016.1 hPa  90%  10.0 km/h   19.4 km/h  0%  --  21.1 km  7%  Clear sky 
 14/07/2024 - 06:00  20.4°C  20.2°C  1016.2 hPa  89%  10.3 km/h   20.6 km/h  0%  --  20.7 km  9%  Clear sky 
 14/07/2024 - 07:00  21.2°C  22.3°C  1016.2 hPa  86%  10.9 km/h   21.7 km/h  0%  --  21.3 km  12%  Clear sky 
 14/07/2024 - 08:00  22.3°C  23.8°C  1016.2 hPa  82%  11.8 km/h   21.7 km/h  0%  --  22.9 km  12%  Clear sky 
 14/07/2024 - 09:00  23.7°C  25.2°C  1016.0 hPa  78%  12.2 km/h   21.8 km/h  0%  --  24.5 km  10%  Clear sky 
 14/07/2024 - 10:00  25.3°C  27.0°C  1015.6 hPa  73%  12.1 km/h   21.3 km/h  0%  --  26.5 km  6%  Clear sky 
 14/07/2024 - 11:00  26.6°C  28.3°C  1015.3 hPa  69%  12.3 km/h   21.8 km/h  0%  --  27.3 km  5%  Clear sky 
 14/07/2024 - 12:00  28.0°C  29.4°C  1014.9 hPa  64%  13.1 km/h   25.3 km/h  0%  --  28.2 km  3%  Clear sky 
 14/07/2024 - 13:00  29.0°C  30.1°C  1014.3 hPa  60%  14.2 km/h   26.9 km/h  0%  --  27.5 km  8%  Clear sky 
 14/07/2024 - 14:00  29.3°C  30.2°C  1013.6 hPa  56%  14.9 km/h   27.8 km/h  0%  --  26.7 km  15%  Mostly clear 
 14/07/2024 - 15:00  30.0°C  30.9°C  1013.0 hPa  54%  15.5 km/h   29.2 km/h  0%  --  28.8 km  10%  Clear sky 
 14/07/2024 - 16:00  30.2°C  31.2°C  1012.3 hPa  53%  16.1 km/h   29.8 km/h  0%  --  29.1 km  4%  Clear sky 
 14/07/2024 - 17:00  29.9°C  31.1°C  1011.7 hPa  53%  15.3 km/h   29.9 km/h  0%  --  28.7 km  4%  Clear sky 
 14/07/2024 - 18:00  29.3°C  30.5°C  1011.2 hPa  56%  13.7 km/h   29.5 km/h  0%  --  28.5 km  7%  Clear sky 
 14/07/2024 - 19:00  28.3°C  29.4°C  1010.9 hPa  59%  12.0 km/h   28.9 km/h  0%  --  28.6 km  8%  Clear sky 
 14/07/2024 - 20:00  27.1°C  27.2°C  1010.7 hPa  64%  10.2 km/h   29.5 km/h  0%  --  28.0 km  13%  Mostly clear 
 14/07/2024 - 21:00  25.8°C  25.2°C  1010.5 hPa  67%  10.9 km/h   31.7 km/h  0%  --  27.9 km  10%  Clear sky 
 14/07/2024 - 22:00  24.6°C  23.9°C  1010.3 hPa  70%  11.4 km/h   29.8 km/h  0%  --  27.9 km  30%  Mostly clear 
 14/07/2024 - 23:00  23.6°C  22.9°C  1010.1 hPa  73%  11.4 km/h   28.3 km/h  0%  --  27.7 km  32%  Mostly clear 
 15/07/2024 - 00:00  22.6°C  21.9°C  1009.9 hPa  76%  10.9 km/h   27.4 km/h  0%  --  27.3 km  50%  Partly cloudy 
 15/07/2024 - 01:00  21.6°C  21.1°C  1009.5 hPa  78%  10.2 km/h   26.9 km/h  0%  --  27.3 km  54%  Partly cloudy 
 15/07/2024 - 02:00  21.4°C  20.7°C  1009.0 hPa  79%  10.2 km/h   26.9 km/h  2%  --  27.1 km  40%  Partly cloudy 
 15/07/2024 - 03:00  20.9°C  20.4°C  1008.6 hPa  80%  10.1 km/h   27.2 km/h  3%  --  26.9 km  57%  Partly cloudy 
 15/07/2024 - 04:00  20.6°C  20.0°C  1008.4 hPa  81%  9.8 km/h   26.3 km/h  4%  --  26.5 km  46%  Partly cloudy 
 15/07/2024 - 05:00  20.3°C  19.8°C  1008.4 hPa  83%  9.7 km/h   25.9 km/h  5%  --  26.2 km  51%  Partly cloudy 
 15/07/2024 - 06:00  20.7°C  20.4°C  1008.4 hPa  82%  10.2 km/h   27.7 km/h  6%  --  26.1 km  58%  Partly cloudy 
 15/07/2024 - 07:00  21.3°C  21.4°C  1008.5 hPa  82%  10.8 km/h   29.0 km/h  6%  --  26.1 km  60%  Partly cloudy 
 15/07/2024 - 08:00  22.1°C  21.6°C  1008.8 hPa  81%  12.0 km/h   30.2 km/h  0%  --  25.4 km  78%  Mostly cloudy 
 15/07/2024 - 09:00  22.8°C  21.8°C  1008.8 hPa  80%  14.0 km/h   31.7 km/h  5%  --  23.4 km  87%  Mostly cloudy 
 15/07/2024 - 10:00  23.9°C  22.7°C  1008.8 hPa  79%  16.7 km/h   33.1 km/h  6%  --  25.0 km  87%  Mostly cloudy 
 15/07/2024 - 11:00  24.9°C  23.7°C  1008.7 hPa  77%  17.6 km/h   34.2 km/h  6%  --  25.4 km  90%  Cloudy sky 
 15/07/2024 - 12:00  25.8°C  24.6°C  1008.6 hPa  74%  17.9 km/h   34.4 km/h  7%  --  25.9 km  86%  Mostly cloudy 
 15/07/2024 - 13:00  26.7°C  26.0°C  1008.4 hPa  72%  18.5 km/h   35.1 km/h  6%  --  26.7 km  69%  Mostly cloudy 
 15/07/2024 - 14:00  27.7°C  27.4°C  1007.9 hPa  69%  17.9 km/h   33.7 km/h  0%  --  27.6 km  58%  Partly cloudy 
 15/07/2024 - 15:00  28.4°C  28.2°C  1007.5 hPa  66%  17.6 km/h   33.0 km/h  0%  --  26.9 km  56%  Partly cloudy 
 15/07/2024 - 16:00  28.8°C  28.8°C  1007.1 hPa  65%  17.8 km/h   33.1 km/h  0%  --  27.3 km  50%  Partly cloudy 
 15/07/2024 - 17:00  29.1°C  29.2°C  1006.8 hPa  65%  17.0 km/h   31.4 km/h  0%  --  27.1 km  49%  Partly cloudy 
 15/07/2024 - 18:00  28.5°C  28.8°C  1006.7 hPa  66%  15.4 km/h   28.1 km/h  0%  --  27.3 km  48%  Partly cloudy 
 15/07/2024 - 19:00  28.1°C  28.9°C  1006.7 hPa  68%  12.9 km/h   24.2 km/h  4%  --  27.5 km  31%  Mostly clear 
 15/07/2024 - 20:00  27.2°C  27.4°C  1006.9 hPa  72%  11.6 km/h   21.2 km/h  0%  --  27.4 km  31%  Mostly clear 
 15/07/2024 - 21:00  26.2°C  26.2°C  1007.0 hPa  75%  10.2 km/h   16.5 km/h  0%  --  26.7 km  24%  Mostly clear 
 15/07/2024 - 22:00  25.1°C  25.1°C  1007.0 hPa  79%  9.5 km/h   15.1 km/h  0%  --  26.6 km  17%  Mostly clear 
 15/07/2024 - 23:00  24.3°C  24.3°C  1007.1 hPa  82%  9.1 km/h   14.8 km/h  0%  --  25.6 km  17%  Mostly clear 
 16/07/2024 - 00:00  23.5°C  23.7°C  1007.0 hPa  86%  8.3 km/h   12.8 km/h  0%  --  24.0 km  16%  Mostly clear 

Weather data sources : HRRR, GFS, Weatherkit, NOAA, Deutscher Wetterdienst, ECMWF and JMA

Never based important decision based on the weather forecast published on this website

 

Past weather and reports

Past weatherFind in this section the past weather conditions, weather archive, graphics, reports and statistics.

Current conditions

Current weather condition for MontrealAll you need to know about the current weather conditions for Montreal. Weather data is updated every 10 minutes.

Weather forecast

Current Montreal weatherSince 2004, celinium.com website has provided accurate weather forecast for Montreal's island.